createdAt,value
2022-11-10T00:02:27.249Z,20.00
2022-11-10T00:04:55.153Z,26.90
2022-11-10T00:07:27.280Z,23.40
2022-11-10T00:09:55.472Z,23.00
2022-11-10T00:12:23.490Z,24.40
2022-11-10T00:15:10.123Z,22.30
2022-11-10T00:17:38.554Z,23.40
2022-11-10T00:20:07.226Z,22.80
2022-11-10T00:22:36.575Z,24.70
2022-11-10T00:25:05.921Z,22.80
2022-11-10T00:27:34.001Z,23.40
2022-11-10T00:30:01.908Z,27.00
2022-11-10T00:32:29.780Z,24.00
2022-11-10T00:34:57.860Z,20.80
2022-11-10T00:37:25.782Z,20.70
2022-11-10T00:39:53.674Z,22.60
2022-11-10T00:42:21.906Z,25.90
2022-11-10T00:44:49.989Z,23.00
2022-11-10T00:47:17.913Z,24.80
2022-11-10T00:49:45.869Z,23.70
2022-11-10T00:52:13.718Z,27.90
2022-11-10T00:54:41.729Z,24.30
2022-11-10T00:57:09.604Z,28.20
2022-11-10T00:59:37.457Z,23.40
2022-11-10T01:02:05.296Z,22.50
2022-11-10T01:04:42.744Z,28.40
2022-11-10T01:07:12.726Z,24.90
2022-11-10T01:09:40.651Z,31.50
2022-11-10T01:12:08.546Z,27.90
2022-11-10T01:14:36.484Z,27.00
2022-11-10T01:17:04.428Z,26.60
2022-11-10T01:19:32.484Z,27.80
2022-11-10T01:22:01.216Z,33.60
2022-11-10T01:24:29.107Z,28.00
2022-11-10T01:26:57.069Z,29.10
2022-11-10T01:29:25.184Z,25.20
2022-11-10T01:31:53.053Z,29.00
2022-11-10T01:34:21.092Z,28.20
2022-11-10T01:36:49.064Z,28.40
2022-11-10T01:39:17.053Z,30.30
2022-11-10T01:41:44.867Z,36.50
2022-11-10T01:44:13.974Z,30.70
2022-11-10T01:46:41.815Z,30.90
2022-11-10T01:49:10.761Z,26.10
2022-11-10T01:51:53.378Z,22.50
2022-11-10T01:54:28.035Z,24.80
2022-11-10T01:57:01.248Z,22.20
2022-11-10T01:59:32.577Z,20.50
2022-11-10T02:02:12.516Z,22.90
2022-11-10T02:04:42.635Z,25.90
2022-11-10T02:07:11.104Z,23.70
2022-11-10T02:09:39.127Z,25.80
2022-11-10T02:12:07.072Z,24.00
2022-11-10T02:14:34.913Z,23.50
2022-11-10T02:17:02.794Z,19.60
2022-11-10T02:19:30.689Z,21.00
2022-11-10T02:21:59.347Z,22.40
2022-11-10T02:24:27.320Z,24.40
2022-11-10T02:26:56.633Z,21.60
2022-11-10T02:29:25.966Z,20.90
2022-11-10T02:31:53.935Z,23.20
2022-11-10T02:34:22.278Z,20.50
2022-11-10T02:36:50.391Z,20.00
2022-11-10T02:39:18.352Z,21.90
2022-11-10T02:41:46.916Z,21.10
2022-11-10T02:44:15.052Z,23.60
2022-11-10T02:46:43.013Z,22.50
2022-11-10T02:49:10.860Z,21.90
2022-11-10T02:51:38.746Z,22.20
2022-11-10T02:54:06.696Z,19.80
2022-11-10T02:56:35.551Z,20.30
2022-11-10T02:59:03.755Z,21.00
2022-11-10T03:01:31.908Z,18.90
2022-11-10T03:03:59.748Z,16.60
2022-11-10T03:06:27.760Z,18.10
2022-11-10T03:08:56.026Z,19.60
2022-11-10T03:11:29.342Z,20.70
2022-11-10T03:14:02.002Z,21.60
2022-11-10T03:16:30.677Z,18.30
2022-11-10T03:18:59.591Z,19.10
2022-11-10T03:21:27.392Z,18.90
2022-11-10T03:23:55.183Z,26.70
2022-11-10T03:26:23.206Z,23.30
2022-11-10T03:28:51.136Z,21.90
2022-11-10T03:31:19.286Z,16.90
2022-11-10T03:33:47.440Z,20.00
2022-11-10T03:36:15.432Z,17.50
2022-11-10T03:38:43.289Z,17.40
2022-11-10T03:41:20.222Z,20.30
2022-11-10T03:43:49.530Z,21.10
2022-11-10T03:46:17.538Z,19.20
2022-11-10T03:48:51.806Z,17.80
2022-11-10T03:51:22.117Z,17.70
2022-11-10T03:53:50.531Z,18.20
2022-11-10T03:56:18.588Z,14.70
2022-11-10T03:58:46.575Z,16.40
2022-11-10T04:01:14.592Z,16.80
2022-11-10T04:03:46.217Z,17.20
2022-11-10T04:06:35.944Z,15.10
2022-11-10T04:09:05.699Z,15.20
2022-11-10T04:11:52.747Z,19.10
2022-11-10T04:14:39.356Z,19.20
2022-11-10T04:17:07.271Z,20.50
2022-11-10T04:19:35.464Z,20.70
2022-11-10T04:22:03.373Z,22.70
2022-11-10T04:24:31.283Z,22.70
2022-11-10T04:26:59.111Z,26.00
2022-11-10T04:29:27.091Z,24.10
2022-11-10T04:31:55.024Z,27.00
2022-11-10T04:34:25.359Z,22.00
2022-11-10T04:36:53.291Z,28.20
2022-11-10T04:39:21.165Z,24.90
2022-11-10T04:41:49.263Z,24.20
2022-11-10T04:44:17.273Z,22.50
2022-11-10T04:46:45.529Z,23.60
2022-11-10T04:49:13.491Z,23.90
2022-11-10T04:51:41.541Z,26.40
2022-11-10T04:54:11.618Z,22.10
2022-11-10T04:56:40.376Z,25.60
2022-11-10T04:59:08.560Z,21.20
2022-11-10T05:01:36.488Z,24.70
2022-11-10T05:04:05.696Z,22.00
2022-11-10T05:06:33.614Z,28.40
2022-11-10T05:09:01.782Z,26.90
2022-11-10T05:11:29.986Z,27.20
2022-11-10T05:13:57.843Z,22.00
2022-11-10T05:16:25.682Z,28.40
2022-11-10T05:18:54.355Z,33.40
2022-11-10T05:21:22.250Z,37.50
2022-11-10T05:23:50.213Z,43.10
2022-11-10T05:26:18.287Z,38.70
2022-11-10T05:28:46.361Z,30.20
2022-11-10T05:31:14.283Z,32.00
2022-11-10T05:33:42.165Z,32.80
2022-11-10T05:36:10.449Z,40.80
2022-11-10T05:38:43.308Z,24.90
2022-11-10T05:41:12.079Z,21.70
2022-11-10T05:43:40.277Z,17.60
2022-11-10T05:46:08.060Z,19.70
2022-11-10T05:48:35.953Z,17.00
2022-11-10T05:51:07.151Z,19.20
2022-11-10T05:53:35.044Z,21.60
2022-11-10T05:56:03.119Z,26.70
2022-11-10T05:58:31.050Z,26.70
2022-11-10T06:00:59.255Z,28.60
2022-11-10T06:03:27.620Z,29.00
2022-11-10T06:05:57.148Z,30.00
2022-11-10T06:08:25.105Z,32.10
2022-11-10T06:10:53.771Z,36.30
2022-11-10T06:13:21.923Z,37.90
2022-11-10T06:15:50.823Z,38.80
2022-11-10T06:18:18.852Z,36.40
2022-11-10T06:20:47.647Z,23.20
2022-11-10T06:23:15.972Z,24.90
2022-11-10T06:25:44.765Z,29.20
2022-11-10T06:28:14.758Z,31.50
2022-11-10T06:30:42.777Z,30.50
2022-11-10T06:33:10.743Z,25.20
2022-11-10T06:35:38.591Z,26.70
2022-11-10T06:38:10.382Z,21.80
2022-11-10T06:40:38.469Z,21.20
2022-11-10T06:43:06.396Z,20.00
2022-11-10T06:45:34.313Z,23.50
2022-11-10T06:48:08.127Z,17.90
2022-11-10T06:50:36.269Z,20.20
2022-11-10T06:53:04.263Z,18.20
2022-11-10T06:55:32.656Z,21.30
2022-11-10T06:58:01.030Z,22.60
2022-11-10T07:00:29.634Z,21.80
2022-11-10T07:03:10.311Z,21.90
2022-11-10T07:05:38.625Z,21.50
2022-11-10T07:08:18.784Z,20.40
2022-11-10T07:10:52.847Z,20.60
2022-11-10T07:13:22.487Z,21.40
2022-11-10T07:15:51.250Z,17.90
2022-11-10T07:18:19.107Z,18.90
2022-11-10T07:20:47.153Z,20.20
2022-11-10T07:23:15.056Z,20.70
2022-11-10T07:25:42.978Z,20.10
2022-11-10T07:28:10.862Z,20.90
2022-11-10T07:30:41.329Z,21.50
2022-11-10T07:33:14.875Z,20.50
2022-11-10T07:35:43.066Z,20.30
2022-11-10T07:38:12.864Z,17.80
2022-11-10T07:40:41.072Z,19.30
2022-11-10T07:43:08.950Z,27.40
2022-11-10T07:45:36.824Z,31.70
2022-11-10T07:48:06.888Z,40.10
2022-11-10T07:50:34.692Z,39.00
2022-11-10T07:53:14.550Z,36.10
2022-11-10T07:55:45.179Z,30.10
2022-11-10T07:58:15.799Z,32.70
2022-11-10T08:00:45.290Z,29.60
2022-11-10T08:03:16.456Z,29.70
2022-11-10T08:05:44.977Z,39.10
2022-11-10T08:08:13.688Z,37.70
2022-11-10T08:10:42.059Z,42.10
2022-11-10T08:13:13.204Z,29.80
2022-11-10T08:15:41.338Z,26.10
2022-11-10T08:18:17.550Z,25.10
2022-11-10T08:20:45.915Z,18.10
2022-11-10T08:23:14.586Z,14.60
2022-11-10T08:25:42.726Z,17.30
2022-11-10T08:28:16.628Z,15.20
2022-11-10T08:33:15.500Z,16.50
2022-11-10T08:35:45.432Z,16.50
2022-11-10T08:38:18.989Z,22.80
2022-11-10T08:40:47.550Z,20.00
2022-11-10T08:43:16.719Z,18.60
2022-11-10T08:45:45.700Z,14.30
2022-11-10T08:48:20.763Z,13.20
2022-11-10T08:50:49.991Z,12.50
2022-11-10T08:53:23.968Z,14.30
2022-11-10T08:55:53.467Z,15.10
2022-11-10T08:58:23.814Z,13.70
2022-11-10T09:00:52.169Z,13.60
2022-11-10T09:03:25.918Z,14.10
2022-11-10T09:05:58.204Z,15.50
2022-11-10T09:08:26.704Z,14.30
2022-11-10T09:10:54.703Z,14.20
2022-11-10T09:13:29.012Z,15.80
2022-11-10T09:16:03.434Z,17.90
2022-11-10T09:18:31.387Z,18.30
2022-11-10T09:20:59.249Z,27.80
2022-11-10T09:23:28.252Z,20.10
2022-11-10T09:25:56.621Z,19.40
2022-11-10T09:28:24.875Z,19.50
2022-11-10T09:30:53.246Z,18.60
2022-11-10T09:33:21.649Z,23.20
2022-11-10T09:35:51.027Z,20.80
2022-11-10T09:38:19.080Z,21.10
2022-11-10T09:41:04.435Z,21.80
2022-11-10T09:43:38.954Z,23.80
2022-11-10T09:46:24.118Z,27.00
2022-11-10T09:49:04.880Z,29.30
2022-11-10T09:51:39.435Z,26.60
2022-11-10T09:54:33.216Z,26.40
2022-11-10T09:57:04.933Z,29.50
2022-11-10T09:59:34.935Z,27.70
2022-11-10T10:02:04.939Z,28.90
2022-11-10T10:04:52.230Z,24.40
2022-11-10T10:07:29.783Z,28.40
2022-11-10T10:10:04.565Z,28.70
2022-11-10T10:12:59.896Z,24.70
2022-11-10T10:15:39.592Z,23.90
2022-11-10T10:18:07.440Z,24.00
2022-11-10T10:20:57.139Z,27.70
2022-11-10T10:24:02.305Z,25.90
2022-11-10T10:26:28.048Z,24.10
2022-11-10T10:29:02.099Z,25.80
2022-11-10T10:31:50.611Z,25.30
2022-11-10T10:34:23.391Z,22.60
2022-11-10T10:36:51.501Z,26.80
2022-11-10T10:39:43.021Z,24.00
2022-11-10T10:42:27.227Z,23.50
2022-11-10T10:47:41.807Z,21.30
2022-11-10T10:50:30.113Z,22.10
2022-11-10T10:53:13.338Z,23.80
2022-11-10T10:56:00.171Z,24.50
2022-11-10T10:58:30.820Z,27.30
2022-11-10T11:01:05.943Z,25.60
2022-11-10T11:03:52.357Z,32.60
2022-11-10T11:06:31.860Z,31.00
2022-11-10T11:09:17.770Z,27.40
2022-11-10T11:11:58.730Z,28.10
2022-11-10T11:14:28.916Z,34.20
2022-11-10T11:17:13.912Z,31.20
2022-11-10T11:19:42.332Z,33.70
2022-11-10T11:22:29.018Z,36.20
2022-11-10T11:25:27.997Z,44.80
2022-11-10T11:28:21.242Z,35.30
2022-11-10T11:31:16.399Z,43.20
2022-11-10T11:34:22.557Z,36.70
2022-11-10T11:37:19.011Z,36.80
2022-11-10T11:40:03.727Z,33.00
2022-11-10T11:45:56.713Z,33.80
2022-11-10T11:48:33.656Z,35.50
2022-11-10T11:51:28.602Z,34.60
2022-11-10T11:54:07.549Z,30.90
2022-11-10T11:56:41.122Z,31.20
2022-11-10T11:59:47.137Z,30.90
2022-11-10T12:02:33.570Z,24.80
2022-11-10T12:05:28.984Z,30.80
2022-11-10T12:08:21.968Z,29.00
2022-11-10T12:11:16.515Z,27.80
2022-11-10T12:14:00.470Z,28.90
2022-11-10T12:16:34.191Z,31.20
2022-11-10T12:19:23.063Z,29.70
2022-11-10T12:22:35.724Z,35.60
2022-11-10T12:25:39.279Z,38.70
2022-11-10T12:28:22.367Z,35.70
2022-11-10T12:30:57.668Z,30.00
2022-11-10T12:33:44.567Z,30.10
2022-11-10T12:36:14.988Z,29.10
2022-11-10T12:39:01.025Z,32.00
2022-11-10T12:41:37.910Z,34.50
2022-11-10T12:44:14.813Z,27.90
2022-11-10T12:46:49.485Z,26.10
2022-11-10T12:49:33.797Z,24.70
2022-11-10T12:52:27.719Z,24.90
2022-11-10T12:54:55.740Z,19.90
2022-11-10T12:57:27.268Z,21.60
2022-11-10T12:59:59.940Z,21.00
2022-11-10T13:02:27.833Z,25.60
2022-11-10T13:05:14.094Z,20.50
2022-11-10T13:07:48.740Z,27.40
2022-11-10T13:10:19.626Z,24.50
2022-11-10T14:11:37.111Z,28.70
2022-11-10T14:14:29.718Z,28.40
2022-11-10T14:16:58.381Z,22.30
2022-11-10T14:19:42.882Z,25.10
2022-11-10T14:22:33.806Z,22.40
2022-11-10T14:25:24.098Z,23.80
2022-11-10T14:27:57.689Z,24.90
2022-11-10T14:30:26.150Z,27.70
2022-11-10T14:33:09.858Z,22.20
2022-11-10T14:35:47.172Z,21.70
2022-11-10T14:38:27.738Z,26.80
2022-11-10T14:40:58.323Z,24.80
2022-11-10T14:43:44.153Z,21.60
2022-11-10T14:46:14.823Z,22.40
2022-11-10T14:48:42.681Z,23.80
2022-11-10T14:51:18.148Z,24.60
2022-11-10T14:53:49.440Z,23.60
2022-11-10T14:56:21.396Z,23.80
2022-11-10T14:58:49.990Z,26.80
2022-11-10T15:01:28.633Z,24.20
2022-11-10T15:03:57.452Z,24.80
2022-11-10T15:06:25.888Z,26.30
2022-11-10T15:08:54.184Z,24.70
2022-11-10T15:11:38.536Z,21.60
2022-11-10T15:17:02.230Z,20.90
2022-11-10T15:19:32.492Z,23.30
2022-11-10T15:22:12.673Z,25.70
2022-11-10T15:24:45.502Z,21.20
2022-11-10T15:27:31.821Z,23.60
2022-11-10T15:30:02.314Z,23.50
2022-11-10T15:32:43.394Z,24.90
2022-11-10T15:35:23.038Z,24.20
2022-11-10T15:38:09.304Z,24.80
2022-11-10T15:40:44.733Z,28.00
2022-11-10T15:43:22.828Z,23.40
2022-11-10T15:46:00.358Z,25.60
2022-11-10T15:48:46.891Z,25.90
2022-11-10T15:51:22.851Z,25.50
2022-11-10T15:53:54.532Z,23.80
2022-11-10T15:56:24.853Z,22.80
2022-11-10T15:58:57.673Z,24.40
2022-11-10T16:01:30.369Z,25.20
2022-11-10T16:03:58.343Z,30.20
2022-11-10T16:06:27.566Z,22.70
2022-11-10T16:08:55.454Z,23.70
2022-11-10T16:11:23.746Z,25.60
2022-11-10T16:13:53.564Z,22.10
2022-11-10T16:16:23.860Z,29.20
2022-11-10T16:18:52.203Z,27.00
2022-11-10T16:21:22.628Z,32.40
2022-11-10T16:23:52.158Z,34.30
2022-11-10T16:26:23.809Z,32.50
2022-11-10T16:28:51.938Z,32.90
2022-11-10T16:31:24.370Z,29.80
2022-11-10T16:33:52.205Z,36.70
2022-11-10T16:36:25.831Z,32.30
2022-11-10T16:38:54.956Z,30.60
2022-11-10T16:41:23.239Z,31.00
2022-11-10T16:43:51.083Z,29.60
2022-11-10T16:46:26.915Z,29.20
2022-11-10T16:48:58.101Z,30.80
2022-11-10T16:51:33.742Z,36.10
2022-11-10T16:54:01.496Z,34.70
2022-11-10T16:56:29.339Z,36.90
2022-11-10T16:58:57.883Z,36.60
2022-11-10T17:01:29.545Z,31.00
2022-11-10T17:04:06.856Z,40.10
2022-11-10T17:06:34.753Z,34.00
2022-11-10T17:09:22.109Z,32.30
2022-11-10T17:11:49.927Z,31.40
2022-11-10T17:14:18.418Z,37.20
2022-11-10T17:16:49.407Z,33.50
2022-11-10T17:19:26.539Z,36.40
2022-11-10T17:21:54.708Z,37.50
2022-11-10T17:24:23.940Z,38.80
2022-11-10T17:26:51.858Z,36.40
2022-11-10T17:29:22.040Z,41.60
2022-11-10T17:31:53.018Z,37.20
2022-11-10T17:34:21.059Z,41.80
2022-11-10T17:36:52.845Z,41.50
2022-11-10T17:39:25.209Z,43.50
2022-11-10T17:41:53.489Z,41.80
2022-11-10T17:44:21.381Z,41.20
2022-11-10T17:46:49.447Z,38.60
2022-11-10T17:49:20.250Z,39.00
2022-11-10T17:51:48.195Z,38.30
2022-11-10T17:54:16.580Z,35.50
2022-11-10T17:56:48.739Z,43.80
2022-11-10T17:59:16.549Z,38.20
2022-11-10T18:01:45.525Z,43.20
2022-11-10T18:04:13.988Z,43.00
2022-11-10T18:06:42.706Z,39.50
2022-11-10T18:09:10.620Z,39.40
2022-11-10T18:11:38.593Z,38.10
2022-11-10T18:14:07.066Z,39.40
2022-11-10T18:16:35.002Z,37.00
2022-11-10T18:19:03.057Z,36.30
2022-11-10T18:21:31.004Z,39.10
2022-11-10T18:23:58.850Z,38.50
2022-11-10T18:26:28.051Z,35.40
2022-11-10T18:28:55.802Z,40.10
2022-11-10T18:31:25.143Z,32.70
2022-11-10T18:33:54.652Z,38.00
2022-11-10T18:36:25.208Z,33.10
2022-11-10T18:38:53.101Z,31.80
2022-11-10T18:41:41.243Z,32.80
2022-11-10T18:44:09.503Z,34.50
2022-11-10T18:46:39.343Z,28.30
2022-11-10T18:49:07.927Z,34.80
2022-11-10T18:51:36.060Z,35.80
2022-11-10T18:54:04.199Z,32.50
2022-11-10T18:56:32.064Z,35.00
2022-11-10T18:59:01.800Z,33.00
2022-11-10T19:01:30.644Z,36.60
2022-11-10T19:04:01.453Z,41.10
2022-11-10T19:06:29.312Z,42.20
2022-11-10T19:08:57.256Z,39.60
2022-11-10T19:11:26.777Z,37.50
2022-11-10T19:13:54.639Z,35.10
2022-11-10T19:16:23.657Z,32.00
2022-11-10T19:18:51.559Z,32.80
2022-11-10T19:21:22.534Z,34.70
2022-11-10T19:23:56.044Z,33.70
2022-11-10T19:26:24.950Z,32.60
2022-11-10T19:28:56.939Z,34.60
2022-11-10T19:31:27.265Z,35.00
2022-11-10T19:33:57.072Z,34.70
2022-11-10T19:36:27.010Z,36.40
2022-11-10T19:38:56.171Z,30.80
2022-11-10T19:41:27.659Z,43.30
2022-11-10T19:44:00.064Z,32.20
2022-11-10T19:46:29.870Z,33.90
2022-11-10T19:48:57.727Z,32.90
2022-11-10T19:51:25.935Z,30.90
2022-11-10T19:54:01.902Z,32.50
2022-11-10T19:56:32.058Z,30.50
2022-11-10T19:59:01.397Z,29.30
2022-11-10T20:01:29.518Z,34.90
2022-11-10T20:04:01.045Z,31.80
2022-11-10T20:06:29.270Z,36.40
2022-11-10T20:08:57.638Z,33.10
2022-11-10T20:11:26.386Z,38.20
2022-11-10T20:14:00.629Z,43.10
2022-11-10T20:16:28.502Z,42.20
2022-11-10T20:18:56.305Z,40.50
2022-11-10T20:21:24.391Z,35.60
2022-11-10T20:23:56.673Z,29.80
2022-11-10T20:26:25.530Z,33.00
2022-11-10T20:28:53.592Z,27.50
2022-11-10T20:31:25.034Z,34.00
2022-11-10T20:33:55.678Z,31.90
2022-11-10T20:36:31.940Z,30.70
2022-11-10T20:39:01.067Z,30.30
2022-11-10T20:41:44.376Z,37.00
2022-11-10T20:44:13.265Z,30.90
2022-11-10T20:46:54.056Z,39.50
2022-11-10T20:49:23.859Z,35.80
2022-11-10T20:51:51.801Z,36.40
2022-11-10T20:54:21.218Z,41.00
2022-11-10T20:56:51.106Z,51.80
2022-11-10T20:59:19.219Z,43.10
2022-11-10T21:02:35.836Z,45.30
2022-11-10T21:06:02.867Z,41.30
2022-11-10T21:10:25.600Z,44.50
2022-11-10T21:14:06.238Z,44.20
2022-11-10T21:17:44.244Z,48.70
2022-11-10T21:25:07.420Z,47.40
2022-11-10T21:32:07.969Z,49.00
2022-11-10T22:25:35.695Z,50.30
